Time;durP1;ratioP1;P1;durP2;ratioP2;P2;SDS_P1;SDS_P2;PMS_P1;PMS_P2;Temp;Humidity;BMP_temperature;BMP_pressure;BME280_temperature;BME280_humidity;BME280_pressure;Samples;Min_cycle;Max_cycle;Signal;HPM_P1;HPM_P2
2023/01/05 00:01:24;;;;;;;0.50;0.50;;;;;;;2.55;100.00;98291.53;5025543;28;20041;-70
2023/01/05 00:03:49;;;;;;;0.50;0.50;;;;;;;2.52;100.00;98286.44;5025783;28;20037;-70
2023/01/05 00:06:17;;;;;;;0.50;0.50;;;;;;;2.48;100.00;98293.28;5026639;28;20057;-70
2023/01/05 00:08:43;;;;;;;0.50;0.50;;;;;;;2.43;100.00;98295.09;5041884;28;20028;-71
2023/01/05 00:22:37;;;;;;;0.50;0.50;;;;;;;2.22;100.00;98308.03;5026618;28;20041;-70
2023/01/05 00:25:04;;;;;;;0.50;0.50;;;;;;;2.19;100.00;98302.94;5042001;28;20053;-70
2023/01/05 00:27:30;;;;;;;0.40;0.40;;;;;;;2.18;100.00;98321.75;5025960;28;20025;-69
2023/01/05 00:29:56;;;;;;;0.50;0.50;;;;;;;2.17;100.00;98314.91;5026608;28;20030;-70
2023/01/05 00:32:22;;;;;;;0.50;0.50;;;;;;;2.16;100.00;98317.47;5041392;28;20038;-70
2023/01/05 00:34:49;;;;;;;0.50;0.50;;;;;;;2.15;100.00;98324.31;5026242;28;20033;-70
2023/01/05 00:37:16;;;;;;;0.50;0.50;;;;;;;2.12;100.00;98321.78;5026234;28;20406;-70
2023/01/05 00:39:41;;;;;;;0.50;0.50;;;;;;;2.14;100.00;98324.34;5026454;28;20057;-70
2023/01/05 00:42:07;;;;;;;0.50;0.50;;;;;;;2.12;100.00;98324.34;5024413;28;20026;-70
2023/01/05 00:44:32;;;;;;;0.50;0.50;;;;;;;2.01;100.00;98316.75;5026587;28;20486;-70
2023/01/05 00:46:58;;;;;;;0.55;0.55;;;;;;;2.06;100.00;98339.75;5026277;28;20057;-69
2023/01/05 00:49:23;;;;;;;0.50;0.50;;;;;;;2.01;100.00;98341.50;5026143;28;20508;-69
2023/01/05 00:51:49;;;;;;;0.50;0.50;;;;;;;1.99;100.00;98341.50;5025847;28;20520;-72
2023/01/05 00:54:14;;;;;;;0.50;0.50;;;;;;;1.97;100.00;98349.19;5025951;28;20049;-69
2023/01/05 00:56:40;;;;;;;0.50;0.50;;;;;;;1.90;100.00;98342.41;5025685;28;20038;-70
2023/01/05 00:59:05;;;;;;;0.50;0.50;;;;;;;1.91;100.00;98359.47;5026105;28;20033;-69
2023/01/05 01:01:30;;;;;;;0.50;0.50;;;;;;;1.90;100.00;98370.53;5025699;28;20076;-70
2023/01/05 01:03:56;;;;;;;0.50;0.50;;;;;;;1.88;100.00;98362.06;5041671;28;20385;-70
2023/01/05 01:06:22;;;;;;;0.50;0.50;;;;;;;1.87;100.00;98364.63;5024833;28;20113;-70
2023/01/05 01:08:47;;;;;;;0.50;0.50;;;;;;;1.82;100.00;98357.81;5025926;28;20030;-70
2023/01/05 01:11:15;;;;;;;0.50;0.50;;;;;;;1.80;100.00;98372.34;5025447;28;20020;-70
2023/01/05 01:13:41;;;;;;;0.50;0.50;;;;;;;1.77;100.00;98371.50;5025622;28;20026;-70
2023/01/05 01:16:09;;;;;;;0.50;0.50;;;;;;;1.70;100.00;98376.66;5025347;28;20021;-70
2023/01/05 01:18:34;;;;;;;0.50;0.50;;;;;;;1.68;100.00;98378.34;5025828;28;20087;-70
2023/01/05 01:21:00;;;;;;;0.50;0.50;;;;;;;1.73;100.00;98381.75;5025630;28;20081;-70
2023/01/05 01:23:26;;;;;;;0.50;0.50;;;;;;;1.66;100.00;98390.28;5025448;28;20385;-70
2023/01/05 01:25:51;;;;;;;0.50;0.50;;;;;;;1.68;100.00;98403.94;5025570;28;20472;-70
2023/01/05 01:28:16;;;;;;;0.50;0.50;;;;;;;1.67;100.00;98404.81;5025241;28;20022;-70
2023/01/05 01:30:42;;;;;;;0.40;0.40;;;;;;;1.67;100.00;98403.94;5025073;28;20416;-70
2023/01/05 01:33:07;;;;;;;0.50;0.50;;;;;;;1.65;100.00;98406.50;5025238;28;20029;-69
2023/01/05 01:35:35;;;;;;;0.45;0.45;;;;;;;1.63;100.00;98407.38;5025479;28;20038;-69
2023/01/05 01:38:01;;;;;;;0.50;0.50;;;;;;;1.56;100.00;98415.09;5024930;28;20038;-69
2023/01/05 01:40:26;;;;;;;0.50;0.50;;;;;;;1.52;100.00;98420.22;5025423;28;20029;-70
2023/01/05 01:42:51;;;;;;;0.47;0.47;;;;;;;1.50;100.00;98440.69;5025092;28;20033;-69
2023/01/05 01:45:18;;;;;;;0.50;0.50;;;;;;;1.48;100.00;98444.94;5025241;28;20026;-69
2023/01/05 01:47:56;;;;;;;0.50;0.50;;;;;;;1.46;100.00;98450.06;5025505;28;20101;-69
2023/01/05 01:50:30;;;;;;;0.50;0.50;;;;;;;1.45;100.00;98452.63;5024056;28;20026;-68
2023/01/05 01:53:10;;;;;;;0.50;0.50;;;;;;;1.40;100.00;98447.53;5025047;28;20022;-69
2023/01/05 01:55:37;;;;;;;0.52;0.52;;;;;;;1.38;100.00;98464.56;5025257;28;20033;-68
2023/01/05 01:58:10;;;;;;;0.50;0.50;;;;;;;1.37;100.00;98475.66;5039886;28;20050;-69
2023/01/05 02:00:37;;;;;;;0.50;0.50;;;;;;;1.28;100.00;98473.97;5024961;28;20037;-69
2023/01/05 02:03:03;;;;;;;0.50;0.50;;;;;;;1.31;100.00;98491.84;5024889;28;20041;-68
2023/01/05 02:05:31;;;;;;;0.50;0.50;;;;;;;1.26;100.00;98488.47;5025279;28;20022;-69
2023/01/05 02:07:57;;;;;;;0.50;0.50;;;;;;;1.26;100.00;98487.59;5025275;28;20026;-68
2023/01/05 02:11:04;;;;;;;0.40;0.40;;;;;;;1.25;100.00;98506.38;5024806;28;20026;-68
2023/01/05 02:13:57;;;;;;;0.50;0.50;;;;;;;1.22;100.00;98527.66;4983710;28;20026;-68
2023/01/05 02:16:43;;;;;;;0.50;0.50;;;;;;;1.20;100.00;98527.66;4983533;28;20046;-70
2023/01/05 02:19:21;;;;;;;0.40;0.40;;;;;;;1.20;100.00;98545.56;4983628;28;20123;-68
2023/01/05 02:22:24;;;;;;;0.50;0.50;;;;;;;1.17;100.00;98537.03;4983268;28;20062;-69
2023/01/05 02:25:08;;;;;;;0.50;0.50;;;;;;;1.14;100.00;98555.78;4983583;28;20489;-68
2023/01/05 02:27:56;;;;;;;0.50;0.50;;;;;;;1.11;100.00;98558.34;4983842;28;20034;-67
2023/01/05 02:30:40;;;;;;;0.50;0.50;;;;;;;1.07;100.00;98562.59;4987519;28;20031;-69
2023/01/05 02:33:26;;;;;;;0.50;0.50;;;;;;;1.04;100.00;98577.09;4987102;28;20566;-67
2023/01/05 02:36:02;;;;;;;0.55;0.55;;;;;;;1.03;100.00;98588.16;4986974;28;20035;-67
2023/01/05 02:38:31;;;;;;;0.50;0.50;;;;;;;1.01;100.00;98587.31;4986734;28;20042;-67
2023/01/05 02:41:02;;;;;;;0.50;0.50;;;;;;;0.94;100.00;98577.06;4986450;28;20053;-68
2023/01/05 02:43:27;;;;;;;0.60;0.60;;;;;;;0.99;100.00;98602.66;4987091;28;20045;-67
2023/01/05 02:45:54;;;;;;;0.50;0.50;;;;;;;0.98;100.00;98614.56;4987434;28;20599;-67
2023/01/05 02:48:20;;;;;;;0.50;0.50;;;;;;;0.97;100.00;98622.22;5022119;28;20038;-67
2023/01/05 02:51:02;;;;;;;0.50;0.50;;;;;;;0.97;100.00;98635.88;5028386;28;20105;-68
2023/01/05 02:53:46;;;;;;;0.50;0.50;;;;;;;0.95;100.00;98646.91;5043294;28;20022;-68
2023/01/05 02:56:25;;;;;;;0.50;0.50;;;;;;;0.95;100.00;98658.00;5028280;28;20481;-68
2023/01/05 02:58:56;;;;;;;0.50;0.50;;;;;;;1.01;100.00;98676.75;5043259;28;20097;-68
2023/01/05 03:01:35;;;;;;;0.60;0.60;;;;;;;1.01;100.00;98682.69;5028298;28;20022;-68
2023/01/05 03:04:14;;;;;;;0.50;0.50;;;;;;;0.95;100.00;98686.09;5028225;28;20018;-67
2023/01/05 03:06:47;;;;;;;0.50;0.50;;;;;;;0.93;100.00;98692.91;5028300;28;20079;-68
2023/01/05 03:09:16;;;;;;;0.50;0.50;;;;;;;0.90;100.00;98705.66;5027948;28;20030;-67
2023/01/05 03:15:04;;;;;;;0.50;0.50;;;;;;;0.90;100.00;98726.13;5028181;28;20450;-67
2023/01/05 03:17:43;;;;;;;0.60;0.60;;;;;;;0.85;100.00;98731.22;5019346;28;20084;-67
2023/01/05 03:20:12;;;;;;;0.52;0.52;;;;;;;0.92;100.00;98747.44;5026542;28;20548;-67
2023/01/05 03:37:09;;;;;;;0.55;0.55;;;;;;;0.80;100.00;98801.03;5026581;28;20073;-66
2023/01/05 03:39:39;;;;;;;0.50;0.50;;;;;;;0.82;100.00;98805.28;5027245;28;20042;-66
2023/01/05 03:42:07;;;;;;;0.60;0.60;;;;;;;0.78;100.00;98784.84;5026968;28;20021;-66
2023/01/05 03:44:36;;;;;;;0.60;0.60;;;;;;;0.77;100.00;98795.91;5027255;28;20022;-66
2023/01/05 03:47:02;;;;;;;0.50;0.50;;;;;;;0.81;100.00;98807.84;5027369;28;20030;-67
2023/01/05 03:49:27;;;;;;;0.50;0.50;;;;;;;0.79;100.00;98825.72;5027162;28;20037;-67
2023/01/05 03:51:52;;;;;;;0.50;0.50;;;;;;;0.79;100.00;98840.19;5026945;28;20014;-67
2023/01/05 03:54:18;;;;;;;0.50;0.50;;;;;;;0.79;100.00;98850.41;5025871;28;20033;-67
2023/01/05 03:56:44;;;;;;;0.50;0.50;;;;;;;0.80;100.00;98858.06;5041980;28;20081;-66
2023/01/05 03:59:10;;;;;;;0.50;0.50;;;;;;;0.79;100.00;98861.47;5027212;28;20038;-67
2023/01/05 04:01:35;;;;;;;0.50;0.50;;;;;;;0.78;100.00;98869.13;5026465;28;20037;-66
2023/01/05 04:04:01;;;;;;;0.52;0.52;;;;;;;0.77;100.00;98877.66;5026805;28;20037;-67
2023/01/05 04:06:26;;;;;;;0.50;0.50;;;;;;;0.73;100.00;98872.53;5027119;28;20030;-67
2023/01/05 04:08:51;;;;;;;0.50;0.50;;;;;;;0.68;100.00;98869.06;5026954;28;20025;-67
2023/01/05 04:11:19;;;;;;;0.50;0.50;;;;;;;0.66;100.00;98864.78;5026712;28;20014;-67
2023/01/05 04:13:45;;;;;;;0.50;0.50;;;;;;;0.62;100.00;98869.03;5026658;28;20125;-68
2023/01/05 04:16:10;;;;;;;0.50;0.50;;;;;;;0.61;100.00;98878.38;5026643;28;20065;-68
2023/01/05 04:18:36;;;;;;;0.50;0.50;;;;;;;0.61;100.00;98891.16;5026785;28;20021;-68
2023/01/05 04:21:02;;;;;;;0.50;0.50;;;;;;;0.60;100.00;98892.00;5042003;28;20022;-68
2023/01/05 04:23:27;;;;;;;0.50;0.50;;;;;;;0.61;100.00;98909.03;5026564;28;20156;-69
2023/01/05 04:25:53;;;;;;;0.47;0.47;;;;;;;0.63;100.00;98910.75;5026605;28;20025;-70
2023/01/05 04:28:18;;;;;;;0.50;0.50;;;;;;;0.59;100.00;98899.66;5026091;28;20026;-69
2023/01/05 04:30:44;;;;;;;0.50;0.50;;;;;;;0.56;100.00;98913.25;5026473;28;20049;-70
2023/01/05 04:33:09;;;;;;;0.50;0.50;;;;;;;0.55;100.00;98920.91;5026453;28;20053;-70
2023/01/05 04:35:35;;;;;;;0.50;0.50;;;;;;;0.55;100.00;98928.56;5026356;28;20092;-68
2023/01/05 04:38:00;;;;;;;0.40;0.40;;;;;;;0.54;100.00;98943.03;5026316;28;20041;-68
2023/01/05 04:40:26;;;;;;;0.50;0.50;;;;;;;0.54;100.00;98943.03;5026117;28;20029;-69
2023/01/05 04:42:51;;;;;;;0.50;0.50;;;;;;;0.55;100.00;98956.66;5026061;28;20014;-68
2023/01/05 04:45:17;;;;;;;0.50;0.50;;;;;;;0.54;100.00;98957.50;5026458;28;20032;-67
2023/01/05 04:47:42;;;;;;;0.50;0.50;;;;;;;0.53;100.00;98977.06;5026094;28;20033;-68
2023/01/05 04:50:08;;;;;;;0.50;0.50;;;;;;;0.51;100.00;98980.47;5025665;28;20486;-68
2023/01/05 04:52:34;;;;;;;0.50;0.50;;;;;;;0.48;100.00;98976.16;5025918;28;20036;-68
2023/01/05 04:54:59;;;;;;;0.50;0.50;;;;;;;0.45;100.00;98996.56;5026020;28;20029;-69
2023/01/05 04:57:24;;;;;;;0.50;0.50;;;;;;;0.49;100.00;99001.75;5025658;28;20028;-67
2023/01/05 04:59:50;;;;;;;0.50;0.50;;;;;;;0.48;100.00;99005.13;5026073;28;20025;-69
2023/01/05 05:02:15;;;;;;;0.60;0.60;;;;;;;0.51;100.00;99017.09;5025678;28;20072;-68
2023/01/05 05:04:40;;;;;;;0.50;0.50;;;;;;;0.52;100.00;99029.00;5025926;28;20045;-68
2023/01/05 05:07:06;;;;;;;0.50;0.50;;;;;;;0.50;100.00;99038.34;5026023;28;20026;-68
2023/01/05 05:09:31;;;;;;;0.50;0.50;;;;;;;0.46;100.00;99054.47;5041125;28;20241;-67
2023/01/05 05:11:57;;;;;;;0.50;0.50;;;;;;;0.41;100.00;99061.22;5025379;28;20028;-68
2023/01/05 05:14:22;;;;;;;0.50;0.50;;;;;;;0.45;100.00;99076.59;5025806;28;20065;-69
2023/01/05 05:16:48;;;;;;;0.50;0.50;;;;;;;0.43;100.00;99093.56;5025816;28;20022;-68
2023/01/05 05:19:13;;;;;;;0.50;0.50;;;;;;;0.44;100.00;99090.22;5025968;28;20018;-68
2023/01/05 05:21:38;;;;;;;0.50;0.50;;;;;;;0.46;100.00;99108.09;5025215;28;20026;-67
2023/01/05 05:24:04;;;;;;;0.60;0.60;;;;;;;0.49;100.00;99113.25;5025712;28;20030;-67
2023/01/05 05:26:30;;;;;;;0.50;0.50;;;;;;;0.52;100.00;99120.06;5040675;28;20041;-67
2023/01/05 05:28:58;;;;;;;0.60;0.60;;;;;;;0.53;100.00;99134.56;5025369;28;20033;-68
2023/01/05 05:31:23;;;;;;;0.50;0.50;;;;;;;0.51;100.00;99142.22;5025317;28;20022;-69
2023/01/05 05:33:49;;;;;;;0.50;0.50;;;;;;;0.49;100.00;99160.06;5025506;28;20026;-67
2023/01/05 05:36:14;;;;;;;0.60;0.60;;;;;;;0.48;100.00;99178.78;5024246;28;20029;-68
2023/01/05 05:38:39;;;;;;;0.60;0.60;;;;;;;0.46;100.00;99175.34;5025332;28;20105;-67
2023/01/05 05:41:05;;;;;;;0.50;0.50;;;;;;;0.44;100.00;99191.47;5025724;28;20450;-69
2023/01/05 05:43:30;;;;;;;0.50;0.50;;;;;;;0.37;100.00;99187.97;5025051;28;20026;-67
2023/01/05 05:45:56;;;;;;;0.50;0.50;;;;;;;0.39;100.00;99188.88;5025289;28;20064;-69
2023/01/05 05:48:21;;;;;;;0.60;0.60;;;;;;;0.39;100.00;99193.97;5025520;28;20034;-68
2023/01/05 05:50:47;;;;;;;0.50;0.50;;;;;;;0.37;100.00;99193.09;5025282;28;20024;-67
2023/01/05 05:53:12;;;;;;;0.50;0.50;;;;;;;0.40;100.00;99216.09;5025192;28;20026;-68
2023/01/05 05:55:38;;;;;;;0.50;0.50;;;;;;;0.35;100.00;99213.50;5025261;28;20036;-68
2023/01/05 05:58:03;;;;;;;0.52;0.52;;;;;;;0.37;100.00;99221.19;5025170;28;20096;-67
2023/01/05 06:00:28;;;;;;;0.50;0.50;;;;;;;0.34;100.00;99231.34;5024918;28;20097;-67
2023/01/05 06:02:54;;;;;;;0.50;0.50;;;;;;;0.35;100.00;99248.41;5028210;28;20494;-67
2023/01/05 06:05:19;;;;;;;0.50;0.50;;;;;;;0.32;100.00;99269.63;5029050;28;20025;-68
2023/01/05 06:07:45;;;;;;;0.60;0.60;;;;;;;0.29;100.00;99294.28;5027788;28;20036;-67
2023/01/05 06:10:10;;;;;;;0.50;0.50;;;;;;;0.27;100.00;99295.94;5029151;28;20049;-66
2023/01/05 06:12:35;;;;;;;0.50;0.50;;;;;;;0.29;100.00;99294.28;5028964;28;20522;-67
2023/01/05 06:15:01;;;;;;;0.50;0.50;;;;;;;0.26;100.00;99302.72;5029093;28;20445;-67
2023/01/05 06:17:26;;;;;;;0.50;0.50;;;;;;;0.24;100.00;99310.34;5044406;28;20026;-67
2023/01/05 06:19:52;;;;;;;0.70;0.70;;;;;;;0.24;100.00;99312.91;5028936;28;20144;-68
2023/01/05 06:22:17;;;;;;;0.50;0.50;;;;;;;0.22;100.00;99327.34;5028581;28;20053;-67
2023/01/05 06:24:43;;;;;;;0.50;0.50;;;;;;;0.25;100.00;99339.31;5028884;28;20018;-67
2023/01/05 06:27:09;;;;;;;0.60;0.60;;;;;;;0.23;100.00;99329.06;5028519;28;20018;-68
2023/01/05 06:29:35;;;;;;;0.50;0.50;;;;;;;0.20;100.00;99343.47;5028679;28;20033;-67
2023/01/05 06:32:00;;;;;;;0.60;0.60;;;;;;;0.20;100.00;99343.47;5028828;28;20022;-67
2023/01/05 06:34:25;;;;;;;0.60;0.60;;;;;;;0.20;100.00;99366.44;5028798;28;20026;-67
2023/01/05 06:36:52;;;;;;;0.57;0.57;;;;;;;0.15;100.00;99362.94;5028288;28;20053;-67
2023/01/05 06:39:18;;;;;;;0.50;0.50;;;;;;;0.14;100.00;99374.00;5028577;28;20048;-67
2023/01/05 06:41:43;;;;;;;0.60;0.60;;;;;;;0.12;100.00;99386.75;5028417;28;20061;-66
2023/01/05 06:44:09;;;;;;;0.50;0.50;;;;;;;0.16;100.00;99418.28;5027356;28;20026;-66
2023/01/05 06:46:34;;;;;;;0.50;0.50;;;;;;;0.14;100.00;99409.75;5028135;28;20101;-66
2023/01/05 06:48:59;;;;;;;0.50;0.50;;;;;;;0.16;100.00;99419.13;5028484;28;20029;-66
2023/01/05 06:51:25;;;;;;;0.60;0.60;;;;;;;0.14;100.00;99428.47;5028112;28;20082;-67
2023/01/05 06:53:50;;;;;;;0.60;0.60;;;;;;;0.10;100.00;99435.22;5028157;28;20022;-67
2023/01/05 06:56:16;;;;;;;0.50;0.50;;;;;;;0.12;100.00;99450.56;5043322;28;20026;-67
2023/01/05 06:58:41;;;;;;;0.50;0.50;;;;;;;0.11;100.00;99459.06;5027980;28;20470;-66
2023/01/05 07:01:06;;;;;;;0.50;0.50;;;;;;;0.09;100.00;99465.81;5028141;28;20025;-66
2023/01/05 07:03:32;;;;;;;0.50;0.50;;;;;;;0.05;100.00;99462.31;5028321;28;20118;-67
2023/01/05 07:05:57;;;;;;;0.50;0.50;;;;;;;0.05;100.00;99480.19;5028093;28;20022;-67
2023/01/05 07:08:22;;;;;;;0.50;0.50;;;;;;;0.02;100.00;99485.25;5028307;28;20024;-65
2023/01/05 07:10:48;;;;;;;0.50;0.50;;;;;;;0.05;100.00;99507.44;5028090;28;20055;-66
2023/01/05 07:13:13;;;;;;;0.50;0.50;;;;;;;0.04;100.00;99523.56;5026972;28;20032;-67
2023/01/05 07:15:39;;;;;;;0.50;0.50;;;;;;;0.04;100.00;99523.56;5027966;28;20431;-66
2023/01/05 07:18:04;;;;;;;0.60;0.60;;;;;;;0.07;100.00;99538.94;5028213;28;20026;-66
2023/01/05 07:20:29;;;;;;;0.50;0.50;;;;;;;0.09;100.00;99538.16;5027686;28;20026;-65
2023/01/05 07:22:55;;;;;;;0.50;0.50;;;;;;;0.09;100.00;99560.25;5027592;28;20489;-65
2023/01/05 07:25:20;;;;;;;0.50;0.50;;;;;;;0.07;100.00;99562.78;5027645;28;20057;-65
2023/01/05 07:27:51;;;;;;;0.60;0.60;;;;;;;0.08;100.00;99573.84;5027343;28;20026;-66
2023/01/05 07:30:16;;;;;;;0.50;0.50;;;;;;;0.07;100.00;99577.22;5042895;28;20085;-66
2023/01/05 07:32:42;;;;;;;0.60;0.60;;;;;;;0.04;100.00;99580.56;5042682;28;20132;-65
2023/01/05 07:35:08;;;;;;;0.60;0.60;;;;;;;0.01;100.00;99590.72;5027616;28;20030;-65
2023/01/05 07:37:33;;;;;;;0.50;0.50;;;;;;;0.02;100.00;99586.47;5027099;28;20042;-67
2023/01/05 07:39:59;;;;;;;0.50;0.50;;;;;;;0.02;100.00;99594.97;5027332;28;20042;-67
2023/01/05 07:42:24;;;;;;;0.55;0.55;;;;;;;0.06;100.00;99612.09;5027393;28;20126;-68
2023/01/05 07:44:51;;;;;;;0.50;0.50;;;;;;;0.03;100.00;99631.59;5027083;28;20100;-66
2023/01/05 07:47:17;;;;;;;0.50;0.50;;;;;;;-0.04;100.00;99623.78;5027740;28;20025;-69
2023/01/05 07:49:42;;;;;;;0.50;0.50;;;;;;;-0.05;100.00;99649.28;5027047;28;20053;-66
2023/01/05 07:52:08;;;;;;;0.50;0.50;;;;;;;-0.03;100.00;99655.25;5026996;28;20021;-67
2023/01/05 07:54:33;;;;;;;0.60;0.60;;;;;;;-0.05;100.00;99675.63;5027404;28;20030;-67
2023/01/05 07:56:59;;;;;;;0.57;0.57;;;;;;;-0.07;100.00;99679.00;5026996;28;20026;-68
2023/01/05 07:59:24;;;;;;;0.60;0.60;;;;;;;-0.11;100.00;99695.91;5027203;28;20038;-68
2023/01/05 08:01:50;;;;;;;0.55;0.55;;;;;;;-0.08;100.00;99705.34;5026816;28;20034;-70
2023/01/05 08:04:15;;;;;;;0.50;0.50;;;;;;;-0.15;100.00;99712.00;5027025;28;20109;-70
2023/01/05 08:06:41;;;;;;;0.60;0.60;;;;;;;-0.09;100.00;99716.38;5042094;28;20029;-72
2023/01/05 08:11:50;;;;;;;0.50;0.50;;;;;;;-0.14;100.00;99744.31;5026664;28;20559;-70
2023/01/05 08:14:15;;;;;;;0.55;0.55;;;;;;;-0.15;100.00;99742.59;5026769;28;20045;-72
2023/01/05 08:16:41;;;;;;;0.50;0.50;;;;;;;-0.14;100.00;99736.66;5026965;28;20022;-72
2023/01/05 08:19:08;;;;;;;0.43;0.43;;;;;;;-0.14;100.00;99754.53;5027117;28;20081;-71
2023/01/05 08:21:33;;;;;;;0.55;0.55;;;;;;;-0.14;100.00;99764.75;5026537;28;20030;-71
2023/01/05 08:23:59;;;;;;;0.50;0.50;;;;;;;-0.16;100.00;99766.41;5027232;28;20045;-72
2023/01/05 08:26:24;;;;;;;0.50;0.50;;;;;;;-0.13;100.00;99767.31;5041245;28;20029;-72
2023/01/05 08:28:51;;;;;;;0.50;0.50;;;;;;;-0.15;100.00;99786.84;5026592;28;20026;-71
2023/01/05 08:31:26;;;;;;;0.55;0.55;;;;;;;-0.11;100.00;99789.50;5026370;28;20021;-70
2023/01/05 08:33:58;;;;;;;0.60;0.60;;;;;;;-0.17;100.00;99800.38;5026436;28;20030;-70
2023/01/05 08:36:25;;;;;;;0.50;0.50;;;;;;;-0.21;100.00;99796.03;5041529;28;20466;-70
2023/01/05 08:38:54;;;;;;;0.50;0.50;;;;;;;-0.31;100.00;99785.59;5026263;28;20105;-72
2023/01/05 08:41:25;;;;;;;0.57;0.57;;;;;;;-0.22;100.00;99807.06;5026441;28;20022;-72
2023/01/05 08:44:01;;;;;;;0.50;0.50;;;;;;;-0.21;100.00;99824.09;5026068;28;20017;-72
2023/01/05 08:46:29;;;;;;;0.50;0.50;;;;;;;-0.23;100.00;99823.19;5026333;28;20030;-71
2023/01/05 08:48:57;;;;;;;0.50;0.50;;;;;;;-0.24;100.00;99816.38;5026227;28;20026;-72
2023/01/05 08:51:23;;;;;;;0.50;0.50;;;;;;;-0.26;100.00;99835.03;5025954;28;20018;-74
2023/01/05 08:53:48;;;;;;;0.60;0.60;;;;;;;-0.27;100.00;99846.06;5026040;28;20026;-75
2023/01/05 08:56:14;;;;;;;0.50;0.50;;;;;;;-0.29;100.00;99819.66;5025917;28;20034;-76
2023/01/05 08:58:40;;;;;;;0.50;0.50;;;;;;;-0.27;100.00;99863.94;5025747;28;20060;-75
2023/01/05 09:01:16;;;;;;;0.50;0.50;;;;;;;-0.27;100.00;99863.06;5026296;28;20018;-74
2023/01/05 09:03:42;;;;;;;0.60;0.60;;;;;;;-0.32;100.00;99860.38;5026021;28;20017;-75
2023/01/05 09:06:10;;;;;;;0.50;0.50;;;;;;;-0.35;100.00;99888.34;5041165;28;20061;-77
2023/01/05 09:08:37;;;;;;;0.50;0.50;;;;;;;-0.27;100.00;99886.88;5025989;28;20058;-77
2023/01/05 09:11:12;;;;;;;0.50;0.50;;;;;;;-0.23;100.00;99897.19;5041013;28;20030;-75
2023/01/05 09:13:39;;;;;;;0.50;0.50;;;;;;;-0.41;100.00;99889.06;5026034;28;20022;-75
2023/01/05 09:16:06;;;;;;;0.50;0.50;;;;;;;-0.36;100.00;99924.91;5025695;28;20032;-72
2023/01/05 09:18:31;;;;;;;0.50;0.50;;;;;;;-0.34;100.00;99920.72;5025790;28;20076;-76
2023/01/05 09:20:57;;;;;;;0.60;0.60;;;;;;;-0.30;100.00;99931.84;5025574;28;20121;-74
2023/01/05 09:23:23;;;;;;;0.50;0.50;;;;;;;-0.23;100.00;99946.53;5025508;28;20064;-74
2023/01/05 09:25:48;;;;;;;0.50;0.50;;;;;;;-0.24;100.00;99961.78;5025866;28;20037;-75
2023/01/05 09:28:13;;;;;;;0.60;0.60;;;;;;;-0.26;100.00;99965.16;5025090;28;20037;-72
2023/01/05 09:30:39;;;;;;;0.60;0.60;;;;;;;-0.26;100.00;99979.59;5025540;28;20022;-75
2023/01/05 09:33:04;;;;;;;0.60;0.60;;;;;;;-0.37;100.00;99966.53;5025359;28;20025;-75
2023/01/05 09:35:29;;;;;;;0.50;0.50;;;;;;;-0.23;100.00;99974.59;5025348;28;20053;-76
2023/01/05 09:37:55;;;;;;;0.60;0.60;;;;;;;-0.20;100.00;99989.13;5039805;28;20042;-74
2023/01/05 09:40:20;;;;;;;0.52;0.52;;;;;;;-0.17;100.00;99994.31;5025346;28;20029;-73
2023/01/05 09:42:46;;;;;;;0.50;0.50;;;;;;;-0.10;100.00;99997.91;5024870;28;20022;-74
2023/01/05 09:45:20;;;;;;;0.50;0.50;;;;;;;-0.13;100.00;99996.13;5025212;28;20029;-73
2023/01/05 09:47:46;;;;;;;0.50;0.50;;;;;;;-0.22;100.00;100000.97;5025747;28;20478;-75
2023/01/05 09:50:31;;;;;;;0.50;0.50;;;;;;;-0.15;100.00;100034.38;5025453;28;20057;-75
2023/01/05 09:52:59;;;;;;;0.50;0.50;;;;;;;-0.20;100.00;100029.94;5025507;28;20045;-75
2023/01/05 09:55:27;;;;;;;0.50;0.50;;;;;;;-0.33;100.00;100021.03;5040371;28;20022;-77
2023/01/05 09:58:13;;;;;;;0.50;0.50;;;;;;;-0.19;100.00;100041.91;5025047;28;20045;-76
2023/01/05 10:00:43;;;;;;;0.57;0.57;;;;;;;-0.16;100.00;100049.63;5025136;28;20497;-77
2023/01/05 10:03:18;;;;;;;0.60;0.60;;;;;;;-0.19;100.00;100063.16;5024918;28;20099;-75
2023/01/05 10:05:46;;;;;;;0.50;0.50;;;;;;;-0.16;100.00;100068.34;5040327;28;20022;-77
2023/01/05 10:08:33;;;;;;;0.50;0.50;;;;;;;-0.19;100.00;100075.91;5025002;28;20030;-76
2023/01/05 10:14:02;;;;;;;0.50;0.50;;;;;;;-0.23;99.90;100081.75;5024860;28;20121;-77
2023/01/05 10:16:27;;;;;;;0.50;0.50;;;;;;;-0.19;100.00;100101.44;5040071;28;20506;-78
2023/01/05 10:18:54;;;;;;;0.50;0.50;;;;;;;-0.19;99.81;100103.97;5025179;28;20030;-79
2023/01/05 10:21:37;;;;;;;0.50;0.50;;;;;;;-0.18;100.00;100107.41;5040277;28;20098;-77
2023/01/05 10:24:20;;;;;;;0.60;0.60;;;;;;;-0.15;100.00;100110.94;5024931;28;20206;-79
2023/01/05 10:26:57;;;;;;;0.60;0.60;;;;;;;-0.16;99.39;100119.38;5025035;28;20084;-79
2023/01/05 10:29:42;;;;;;;0.50;0.50;;;;;;;-0.13;99.88;100133.94;5024600;28;20038;-78
2023/01/05 10:32:33;;;;;;;0.60;0.60;;;;;;;-0.08;99.93;100144.28;5024904;28;20081;-79
2023/01/05 10:35:03;;;;;;;0.60;0.60;;;;;;;-0.04;99.49;100144.44;5024829;28;20037;-78
2023/01/05 10:38:04;;;;;;;0.50;0.50;;;;;;;-0.07;100.00;100154.53;5024618;28;20085;-79
2023/01/05 10:40:57;;;;;;;0.60;0.60;;;;;;;-0.03;99.99;100170.78;5024752;28;20045;-79
2023/01/05 10:43:34;;;;;;;0.50;0.50;;;;;;;-0.06;99.59;100175.81;5024596;28;20033;-78
2023/01/05 10:46:01;;;;;;;0.57;0.57;;;;;;;-0.20;99.64;100176.25;5024996;28;20112;-77
2023/01/05 10:48:30;;;;;;;0.52;0.52;;;;;;;-0.17;99.67;100183.13;5040798;28;20013;-80
2023/01/05 10:50:56;;;;;;;0.60;0.60;;;;;;;-0.09;99.25;100196.13;5028621;28;20048;-78
2023/01/05 10:53:25;;;;;;;0.57;0.57;;;;;;;-0.15;99.26;100202.78;5028399;28;20026;-78
2023/01/05 10:55:57;;;;;;;0.60;0.60;;;;;;;-0.12;99.45;100207.13;5028496;28;20505;-80
2023/01/05 10:58:25;;;;;;;0.50;0.50;;;;;;;-0.11;99.26;100203.75;5026876;28;20041;-79
2023/01/05 11:00:54;;;;;;;0.60;0.60;;;;;;;-0.16;99.33;100221.44;5043425;28;20024;-75
2023/01/05 11:03:26;;;;;;;0.50;0.50;;;;;;;-0.15;98.95;100233.41;5028208;28;20030;-74
2023/01/05 11:05:51;;;;;;;;;;;;;;;-0.16;98.82;100225.72;5043896;28;20029;-76
2023/01/05 11:08:20;;;;;;;0.60;0.60;;;;;;;-0.19;98.80;100220.50;5027936;28;19959;-75
2023/01/05 11:11:02;;;;;;;0.50;0.50;;;;;;;-0.16;98.71;100230.81;5027832;28;20022;-75
2023/01/05 11:13:37;;;;;;;0.70;0.70;;;;;;;-0.21;98.22;100232.34;5026416;28;20026;-77
2023/01/05 11:16:11;;;;;;;0.50;0.50;;;;;;;-0.21;98.65;100245.09;5028064;28;20128;-75
2023/01/05 11:19:00;;;;;;;0.57;0.57;;;;;;;-0.19;98.84;100258.78;5027998;28;20049;-77
2023/01/05 11:21:41;;;;;;;0.50;0.50;;;;;;;-0.24;98.04;100247.56;5027738;28;20029;-74
2023/01/05 11:24:34;;;;;;;0.50;0.50;;;;;;;-0.10;97.26;100261.63;5027730;28;20029;-74
2023/01/05 11:27:20;;;;;;;0.50;0.50;;;;;;;-0.24;97.46;100268.84;5042968;28;20032;-75
2023/01/05 11:30:12;;;;;;;0.60;0.60;;;;;;;-0.29;98.09;100270.34;5027244;28;20026;-73
2023/01/05 11:32:39;;;;;;;0.63;0.63;;;;;;;-0.34;98.13;100267.66;5027582;28;20029;-74
2023/01/05 11:35:30;;;;;;;0.50;0.50;;;;;;;-0.34;97.88;100260.00;5027487;28;20754;-75
2023/01/05 11:37:56;;;;;;;0.60;0.60;;;;;;;-0.34;98.16;100280.41;5027059;28;20054;-76
2023/01/05 11:40:27;;;;;;;0.60;0.60;;;;;;;-0.26;97.84;100283.22;5027209;28;20105;-75
2023/01/05 11:42:53;;;;;;;0.70;0.70;;;;;;;-0.24;97.98;100290.94;5027259;28;20045;-76
2023/01/05 11:45:23;;;;;;;0.60;0.60;;;;;;;-0.30;98.29;100294.13;5027127;28;20096;-74
2023/01/05 11:48:02;;;;;;;0.60;0.60;;;;;;;-0.34;98.39;100299.94;5042828;28;20096;-75
2023/01/05 11:50:31;;;;;;;0.50;0.50;;;;;;;-0.22;98.67;100314.81;5042516;28;20030;-75
2023/01/05 11:52:59;;;;;;;0.50;0.50;;;;;;;-0.18;98.35;100309.88;5027101;28;20033;-73
2023/01/05 11:55:36;;;;;;;0.50;0.50;;;;;;;-0.18;98.13;100309.00;5027144;28;20040;-75
2023/01/05 11:58:18;;;;;;;0.63;0.63;;;;;;;-0.19;97.64;100332.78;5042216;28;20026;-75
2023/01/05 12:01:04;;;;;;;0.60;0.60;;;;;;;-0.25;96.56;100320.66;5026981;28;20025;-75
2023/01/05 12:03:44;;;;;;;0.60;0.60;;;;;;;-0.25;96.00;100341.06;5042059;28;20037;-75
2023/01/05 12:06:19;;;;;;;0.50;0.50;;;;;;;-0.27;95.53;100358.00;5027020;28;20030;-75
2023/01/05 12:09:22;;;;;;;0.50;0.50;;;;;;;-0.38;96.36;100360.19;5026963;28;20029;-74
2023/01/05 12:11:53;;;;;;;0.50;0.50;;;;;;;-0.39;96.93;100371.22;5042257;28;20026;-74
2023/01/05 12:14:23;;;;;;;0.60;0.60;;;;;;;-0.32;96.61;100364.66;5041723;28;20049;-76